createdAt,value
2019-05-30T00:03:50.481Z,2.13
2019-05-30T00:08:56.250Z,1.67
2019-05-30T00:14:00.725Z,1.60
2019-05-30T00:19:05.043Z,1.57
2019-05-30T00:24:08.365Z,1.87
2019-05-30T00:29:11.328Z,1.57
2019-05-30T00:34:14.220Z,1.80
2019-05-30T00:39:16.987Z,1.83
2019-05-30T00:44:19.903Z,1.67
2019-05-30T00:49:22.635Z,1.70
2019-05-30T00:54:25.336Z,1.70
2019-05-30T00:59:28.247Z,1.30
2019-05-30T01:04:30.987Z,1.83
2019-05-30T01:09:33.746Z,1.20
2019-05-30T01:14:36.722Z,1.80
2019-05-30T01:19:39.436Z,1.33
2019-05-30T01:24:42.364Z,1.70
2019-05-30T01:29:47.327Z,1.30
2019-05-30T01:34:50.034Z,1.97
2019-05-30T01:39:52.895Z,2.07
2019-05-30T01:44:55.607Z,1.40
2019-05-30T01:49:58.352Z,1.70
2019-05-30T01:55:01.130Z,1.97
2019-05-30T02:00:10.898Z,1.50
2019-05-30T02:05:11.282Z,1.37
2019-05-30T02:10:15.459Z,1.30
2019-05-30T02:15:18.496Z,0.93
2019-05-30T02:20:21.268Z,1.50
2019-05-30T02:25:24.039Z,1.17
2019-05-30T02:30:26.659Z,1.30
2019-05-30T02:35:29.355Z,1.50
2019-05-30T02:40:32.188Z,1.43
2019-05-30T02:45:34.984Z,1.10
2019-05-30T02:50:37.797Z,1.43
2019-05-30T02:55:41.387Z,1.50
2019-05-30T03:00:44.314Z,1.23
2019-05-30T03:05:47.084Z,1.10
2019-05-30T03:10:49.892Z,1.50
2019-05-30T03:15:56.123Z,1.43
2019-05-30T03:20:58.863Z,1.43
2019-05-30T03:26:02.552Z,1.40
2019-05-30T03:31:14.034Z,1.60
2019-05-30T03:36:23.825Z,1.30
2019-05-30T03:41:17.598Z,1.20
2019-05-30T03:46:25.571Z,1.40
2019-05-30T03:51:30.573Z,2.20
2019-05-30T03:56:38.370Z,1.63
2019-05-30T04:01:54.350Z,1.60
2019-05-30T04:07:02.759Z,1.53
2019-05-30T04:12:34.190Z,2.10
2019-05-30T04:17:37.584Z,1.93
2019-05-30T04:22:40.492Z,1.30
2019-05-30T04:27:43.465Z,1.40
2019-05-30T04:32:46.166Z,2.30
2019-05-30T04:37:49.101Z,1.30
2019-05-30T04:42:52.163Z,1.97
2019-05-30T04:53:42.391Z,1.50
2019-05-30T04:58:45.444Z,1.70
2019-05-30T05:03:49.331Z,1.50
2019-05-30T05:08:51.960Z,2.33
2019-05-30T05:13:54.736Z,1.63
2019-05-30T05:18:57.446Z,1.60
2019-05-30T05:24:00.192Z,1.60
2019-05-30T05:29:04.057Z,1.50
2019-05-30T05:34:06.758Z,1.77
2019-05-30T05:39:09.416Z,1.20
2019-05-30T05:44:12.176Z,1.30
2019-05-30T05:49:16.284Z,1.70
2019-05-30T05:54:19.360Z,1.33
2019-05-30T05:59:23.020Z,1.97
2019-05-30T06:04:25.923Z,1.70
2019-05-30T06:09:28.836Z,1.43
2019-05-30T06:14:31.659Z,1.50
2019-05-30T06:19:45.986Z,2.17
2019-05-30T06:24:39.670Z,2.07
2019-05-30T06:29:42.309Z,2.00
2019-05-30T06:34:45.009Z,1.73
2019-05-30T06:39:48.193Z,2.00
2019-05-30T06:44:51.002Z,1.80
2019-05-30T06:49:54.016Z,1.70
2019-05-30T06:54:56.798Z,1.80
2019-05-30T06:59:59.874Z,2.07
2019-05-30T07:05:03.476Z,2.00
2019-05-30T07:10:07.367Z,2.27
2019-05-30T07:15:10.829Z,1.73
2019-05-30T07:20:13.783Z,2.57
2019-05-30T07:25:17.315Z,3.07
2019-05-30T07:30:20.113Z,2.20
2019-05-30T07:35:23.961Z,2.27
2019-05-30T07:40:26.753Z,2.47
2019-05-30T07:46:29.434Z,2.40
2019-05-30T07:51:39.119Z,2.23
2019-05-30T07:56:42.271Z,2.20
2019-05-30T08:08:09.019Z,4.03
2019-05-30T08:14:10.669Z,3.40
2019-05-30T08:19:15.762Z,4.67
2019-05-30T08:24:26.440Z,4.67
2019-05-30T08:29:30.127Z,3.53
2019-05-30T08:34:34.522Z,3.67
2019-05-30T08:39:37.844Z,3.60
2019-05-30T08:51:40.750Z,2.63
2019-05-30T08:56:43.580Z,2.57
2019-05-30T09:01:52.873Z,2.53
2019-05-30T09:06:52.061Z,3.60
2019-05-30T09:11:54.810Z,2.73
2019-05-30T09:16:58.668Z,2.90
2019-05-30T09:22:01.506Z,3.57
2019-05-30T09:27:05.423Z,2.90
2019-05-30T09:32:08.256Z,2.60
2019-05-30T09:37:11.001Z,2.30
2019-05-30T09:42:13.683Z,2.40
2019-05-30T09:47:18.620Z,2.47
2019-05-30T09:52:21.326Z,3.03
2019-05-30T09:57:24.174Z,3.07
2019-05-30T10:02:26.913Z,3.13
2019-05-30T10:07:29.613Z,3.10
2019-05-30T10:12:33.378Z,3.40
2019-05-30T10:17:36.783Z,3.40
2019-05-30T10:22:44.733Z,3.97
2019-05-30T10:27:51.050Z,4.70
2019-05-30T10:32:54.046Z,4.20
2019-05-30T10:37:57.193Z,4.80
2019-05-30T10:43:13.167Z,4.70
2019-05-30T10:48:14.313Z,4.13
2019-05-30T10:53:16.982Z,4.60
2019-05-30T10:58:20.114Z,4.67
2019-05-30T11:03:24.427Z,4.90
2019-05-30T11:08:30.325Z,6.20
2019-05-30T11:13:33.228Z,4.57
2019-05-30T11:18:36.109Z,4.77
2019-05-30T11:23:38.900Z,4.20
2019-05-30T11:28:41.629Z,5.13
2019-05-30T11:33:44.303Z,5.67
2019-05-30T11:38:47.108Z,4.93
2019-05-30T11:43:51.203Z,5.33
2019-05-30T11:48:54.154Z,5.23
2019-05-30T11:53:57.911Z,5.27
2019-05-30T11:59:03.085Z,6.77
2019-05-30T12:04:07.315Z,5.50
2019-05-30T12:09:09.986Z,4.83
2019-05-30T12:14:12.769Z,4.80
2019-05-30T12:19:15.622Z,4.93
2019-05-30T12:24:21.713Z,5.90
2019-05-30T12:29:24.475Z,6.07
2019-05-30T12:34:39.975Z,6.57
2019-05-30T12:39:43.574Z,8.77
2019-05-30T12:44:46.522Z,11.23
2019-05-30T12:49:49.243Z,12.87
2019-05-30T12:54:52.125Z,13.80
2019-05-30T12:59:56.751Z,14.13
2019-05-30T13:05:04.854Z,15.90
2019-05-30T13:10:09.076Z,14.60
2019-05-30T13:15:15.984Z,15.73
2019-05-30T13:20:21.415Z,16.00
2019-05-30T13:25:25.130Z,17.33
2019-05-30T13:30:28.252Z,15.23
2019-05-30T13:35:31.375Z,13.67
2019-05-30T13:40:35.451Z,14.37
2019-05-30T13:45:38.084Z,17.20
2019-05-30T13:50:41.475Z,17.10
2019-05-30T13:55:44.224Z,13.17
2019-05-30T14:00:47.215Z,14.50
2019-05-30T14:05:51.122Z,13.03
2019-05-30T14:10:55.006Z,16.67
2019-05-30T14:15:57.855Z,12.73
2019-05-30T14:21:01.914Z,13.47
2019-05-30T14:26:05.333Z,12.63
2019-05-30T14:31:08.913Z,9.43
2019-05-30T14:36:13.302Z,13.03
2019-05-30T14:41:16.643Z,13.77
2019-05-30T14:46:20.137Z,12.60
2019-05-30T14:51:35.302Z,13.57
2019-05-30T14:56:37.418Z,13.03
2019-05-30T15:01:40.166Z,13.40
2019-05-30T15:06:43.806Z,11.70
2019-05-30T15:11:51.676Z,13.40
2019-05-30T15:16:54.905Z,15.30
2019-05-30T15:21:57.686Z,13.07
2019-05-30T15:27:01.202Z,14.63
2019-05-30T15:32:06.160Z,13.20
2019-05-30T15:37:27.267Z,15.17
2019-05-30T15:42:32.309Z,15.10
2019-05-30T15:47:35.115Z,13.97
2019-05-30T15:52:38.195Z,12.83
2019-05-30T15:57:40.937Z,12.87
2019-05-30T16:02:50.679Z,12.53
2019-05-30T16:07:54.560Z,12.77
2019-05-30T16:12:57.653Z,8.47
2019-05-30T16:18:01.033Z,8.50
2019-05-30T16:23:09.020Z,9.63
2019-05-30T16:28:13.749Z,8.83
2019-05-30T16:33:17.899Z,7.90
2019-05-30T16:44:30.092Z,8.23
2019-05-30T16:49:33.831Z,8.40
2019-05-30T16:54:37.318Z,8.93
2019-05-30T16:59:49.682Z,9.33
2019-05-30T17:05:15.855Z,11.53
2019-05-30T17:10:29.603Z,10.97
2019-05-30T17:15:26.848Z,11.67
2019-05-30T17:20:29.915Z,13.00
2019-05-30T17:25:32.644Z,10.13
2019-05-30T17:30:35.528Z,11.90
2019-05-30T17:35:39.241Z,9.73
2019-05-30T17:40:45.161Z,8.87
2019-05-30T17:45:46.570Z,8.53
2019-05-30T17:50:49.688Z,7.43
2019-05-30T17:55:52.571Z,6.20
2019-05-30T18:00:57.519Z,5.87
2019-05-30T18:06:00.089Z,6.10
2019-05-30T18:11:03.095Z,6.80
2019-05-30T18:16:05.924Z,6.33
2019-05-30T18:21:08.660Z,6.10
2019-05-30T18:26:11.310Z,4.87
2019-05-30T18:31:14.123Z,5.80
2019-05-30T18:36:16.794Z,5.67
2019-05-30T18:41:19.522Z,6.27
2019-05-30T18:46:23.042Z,4.30
2019-05-30T18:51:26.023Z,5.77
2019-05-30T18:56:28.925Z,7.53
2019-05-30T19:01:33.767Z,5.53
2019-05-30T19:06:36.896Z,7.10
2019-05-30T19:11:39.815Z,6.23
2019-05-30T19:16:43.180Z,7.13
2019-05-30T19:21:45.980Z,5.43
2019-05-30T19:26:48.830Z,6.67
2019-05-30T19:31:51.770Z,7.67
2019-05-30T19:36:54.626Z,7.87
2019-05-30T19:41:57.836Z,7.10
2019-05-30T19:47:01.213Z,6.83
2019-05-30T19:52:04.315Z,5.43
2019-05-30T19:57:07.155Z,5.13
2019-05-30T20:02:10.383Z,5.07
2019-05-30T20:07:13.357Z,4.33
2019-05-30T20:12:16.088Z,5.40
2019-05-30T20:17:18.849Z,4.30
2019-05-30T20:22:21.564Z,5.13
2019-05-30T20:27:24.651Z,4.93
2019-05-30T20:32:27.594Z,4.33
2019-05-30T20:37:32.480Z,4.10
2019-05-30T20:42:36.695Z,4.53
2019-05-30T20:47:42.187Z,3.40
2019-05-30T20:52:45.571Z,4.43
2019-05-30T20:57:48.636Z,5.33
2019-05-30T21:02:51.910Z,4.70
2019-05-30T21:07:55.181Z,4.90
2019-05-30T21:13:00.019Z,3.40
2019-05-30T21:18:04.522Z,4.10
2019-05-30T21:23:07.443Z,4.47
2019-05-30T21:28:10.291Z,4.13
2019-05-30T21:33:13.054Z,3.50
2019-05-30T21:38:15.886Z,2.30
2019-05-30T21:43:18.713Z,2.97
2019-05-30T21:48:21.514Z,3.17
2019-05-30T21:53:27.524Z,3.10
2019-05-30T21:58:30.374Z,3.47
2019-05-30T22:03:33.202Z,2.80
2019-05-30T22:08:36.195Z,3.10
2019-05-30T22:13:45.703Z,3.30
2019-05-30T22:18:48.540Z,3.27
2019-05-30T22:23:52.525Z,3.73
2019-05-30T22:28:55.970Z,3.90
2019-05-30T22:33:58.767Z,3.87
2019-05-30T22:39:01.675Z,3.80
2019-05-30T22:44:06.271Z,3.87
2019-05-30T22:49:09.248Z,3.97
2019-05-30T22:54:11.966Z,4.37
2019-05-30T22:59:15.039Z,4.63
2019-05-30T23:04:21.817Z,5.23
2019-05-30T23:09:24.556Z,4.20
2019-05-30T23:14:27.272Z,4.43
2019-05-30T23:19:29.942Z,5.00
2019-05-30T23:24:32.783Z,4.17
2019-05-30T23:29:36.087Z,4.90
2019-05-30T23:34:48.114Z,5.90
2019-05-30T23:39:51.032Z,5.97
2019-05-30T23:44:57.551Z,5.53
2019-05-30T23:50:00.438Z,5.13
2019-05-30T23:55:04.026Z,4.57
